Aviation Digital Data Service (ADDS)

Output produced by METARs form (0906 UTC 27 November 2014)
found at http://aviationweather.gov/adds/metars/
 
KGFL 270736Z 2708/2806 35006KT 2SM -SN BR FEW012 BKN023 OVC035 
     FM271000 34006KT P6SM VCSH OVC035 
     FM271500 34005KT P6SM BKN035 
     FM280100 32006KT 2SM -SN BR SCT012 OVC022